Aeroporto :
LOGIN :

Iscrizione | Disclaimer

   EN    FR    IT 

 










Sommario :    VFR   VFR Marginale   IFR   IFR Intensivo   IFR Molto Intensivo
Visibilità : 
Base nubi : 
>= 8 km
>= 3000ft
5 / 8 km
1000 / 3000 ft
1500m / 5 km
500 / 1000 ft
800 / 1500m
200 / 500 ft
< 800m
< 200 ft
Simboli :   Temporali  Nebbia  Neve Forte  Precipitazioni Forti  Vento > 20 kt
SIGMETs :   Varie  Temporali  Ghiacco  Turbolenza  Onda orograficha  Ceneri Vulcaniche







- Altitudine del aeroporto : 978 ft
- Codice IATA : LNZ


LOWL - Linz

ULTIMO METAR :
  • 170250Z AUTO 31002KT 8000 NSC M03/M04 Q1028

METARs OBSOLETI :
  • 170220Z AUTO 24002KT 9000 NSC M03/M04 Q1028
  • 170150Z AUTO 20002KT 8000 NSC M02/M03 Q1028
  • 170120Z AUTO 29002KT 9999 NSC M03/M04 Q1029
  • 170050Z AUTO 27003KT 9999 NSC M02/M03 Q1029
  • 170020Z 28002KT CAVOK M01/M03 Q1029 NOSIG

TAF TAF LOWL
Valido dal 17 a 00 ore il 18 a 00 ore UTC


162315Z 1700/1724 VRB02KT CAVOK TX11/1714Z TNM03/1705Z
TEMPO 1700/1710 4000 BR NSC
PROB30
TEMPO 1704/1708 0200 FZFG VV001
BECMG 1721/1724 3000 BR NSC
Nessun NOTAM noto per questo aeroporto.



MetMap, La meteo Aeronautica in un colpo d'occhio ! - Copyright ORBIFLY Dicembre 2007 - Disclaimer

ORBIFLY MET'MAP TEAM :

Programmazione e sviluppo : Alexandra Zaïnal
Concezione e sviluppo : Baudouin d'Aumeries
Co-Programmazione e sviluppo : Marc-Olivier Méhu
Supporto tecnico e logistico : Manuel Goepfert
Aiuto per la traduzione : Arnaldo La Scala

Contatto : metmap@orbifly.com




FONTI E CREDITI :

   NOAA